Loretto, Pennsylvania
Current Conditions -  °F | °C
As of 3:54 PM on Monday 22 Dec 2014 (Local Time) from KJST Reporting Station
Overcast Overcast  
Wind Chill: 23°   Ceiling: 5000
Heat Index: 30°   Visibility: 7mi
Dew Point: 23°   Wind: 7mph
Humidity: 75%   Direction: 140°SE
Pressure: 30.03"   Gusts: NA
Location:  40.5°N, 78.63°W
Report Text: KJST 222054Z AUTO 14006KT 7SM FEW012 OVC050 M01/M05 A3003 RMK AO2 SLP196 T10111050
Loading
Personal Weather Stations






























Interactive Weather Map New forecast layout! Learn more

10-Day Weather Forecast

Advertisements
Track Severe Weather on mobile